Current River (Missouri), Montauk (07064440)

StateMissouriLatestHigh (256 cfs)
RiverCurrent RiverRatingObservedEstimated
Updated2024-05-27 7:15 (1 hour ago)Flood - The river is flooding. Obstacles can be treacherous or deadly. The river should be avoided at this stage for casual trips and definitely for the inexperienced. Trips should be attempted only with protective gear and equipment.Flood(none)367
Discharge256 cfs (median: 164 cfs)High - The river is high and potentially dangerous, especially for the young and / or inexperienced. Normal stream obstacles are sometimes difficult to navigate. Extended distances can be attempted, but canoe travel may not be advisable.High(none)234
Height2.2 feetGood - Conditions are ideal for a canoe or kayak. Boats typically will drag on fewer than one-quarter of riffles, if at all, and portages are unnecessary or rare. Normal float lengths can be attempted without a problem.Good(none)167
TrendFalling (rising over 24 hours)Low - River is low but can still be floated. Some riffles are okay but most come with significant dragging and might need a portage. Float lengths should be reduced to accommodate low flow, dragging, and portages.Low(none)134
USGSExternal icon USGS Site (External icon Duck Duck Go Maps)Poor - River is too low to float comfortably. Most or all riffles will drag or must be portaged and some obstacles (such as slick shelf rock) cause undue problems. Avoid the river at this stage for casual paddling trips.Poor(none)101

Trending Data

Plot Image

Trips for Current River (Missouri), Montauk (07064440)

DateStartEndDistanceConditionDischargeHeightFishingDetails

A total of 0 rows are displayed.

Condition Descriptions

Fishing Conditions

Fish Species

Notes

Classic Trip List

The classic River Trips application is still available for use. It is updated with the new system using a data retrofit. It is no longer maintained. The original River Trips application is no longer updated (as of 1 Dec 2016) but can be checked for errors or for the condition of the data before it was converted to the new system.

Gauge Data Table

ObservationHeightDischargeMaximum
Discharge
Minimum
Discharge
Mean
Discharge
P05P10P20P25P50
(Median)
P75P80P90P95
2024-05-27 07:15 2.20 256 286 (2011) 83 (2012) 171 87 120 129 164 213 217 272
2024-05-27 06:15 2.21 259 286 (2011) 83 (2012) 171 87 120 129 164 213 217 272
2024-05-27 05:15 2.22 261 286 (2011) 83 (2012) 171 87 120 129 164 213 217 272
2024-05-27 04:15 2.22 261 286 (2011) 83 (2012) 171 87 120 129 164 213 217 272
2024-05-27 03:15 2.22 261 286 (2011) 83 (2012) 171 87 120 129 164 213 217 272
2024-05-27 02:15 2.21 259 286 (2011) 83 (2012) 171 87 120 129 164 213 217 272
2024-05-27 01:15 2.22 261 286 (2011) 83 (2012) 171 87 120 129 164 213 217 272
2024-05-27 00:15 2.22 261 286 (2011) 83 (2012) 171 87 120 129 164 213 217 272
2024-05-26 23:15 2.24 266 286 (2011) 83 (2012) 171 87 120 129 164 213 217 272
2024-05-26 22:15 2.23 264 337 (2011) 83 (2012) 175 87 119 130 164 215 221 288
2024-05-26 21:15 2.18 251 337 (2011) 83 (2012) 175 87 119 130 164 215 221 288
2024-05-26 20:15 2.20 256 337 (2011) 83 (2012) 175 87 119 130 164 215 221 288
2024-05-26 19:15 2.22 261 337 (2011) 83 (2012) 175 87 119 130 164 215 221 288
2024-05-26 18:15 2.07 224 337 (2011) 83 (2012) 175 87 119 130 164 215 221 288
2024-05-26 17:15 2.08 227 337 (2011) 83 (2012) 175 87 119 130 164 215 221 288
2024-05-26 16:15 2.09 229 337 (2011) 83 (2012) 175 87 119 130 164 215 221 288
2024-05-26 15:15 2.08 227 337 (2011) 83 (2012) 175 87 119 130 164 215 221 288
2024-05-26 14:15 2.03 215 337 (2011) 83 (2012) 175 87 119 130 164 215 221 288
2024-05-26 13:15 2.02 213 337 (2011) 83 (2012) 175 87 119 130 164 215 221 288
2024-05-26 12:15 2.00 208 337 (2011) 83 (2012) 175 87 119 130 164 215 221 288
2024-05-26 11:15 1.98 204 337 (2011) 83 (2012) 175 87 119 130 164 215 221 288
2024-05-26 10:15 1.97 202 337 (2011) 83 (2012) 175 87 119 130 164 215 221 288
2024-05-26 09:15 1.99 206 337 (2011) 83 (2012) 175 87 119 130 164 215 221 288
2024-05-26 08:15 1.93 193 337 (2011) 83 (2012) 175 87 119 130 164 215 221 288
2024-05-26 07:15 1.85 176 337 (2011) 83 (2012) 175 87 119 130 164 215 221 288
2024-05-26 06:15 1.87 181 337 (2011) 83 (2012) 175 87 119 130 164 215 221 288
2024-05-26 05:15 1.80 166 337 (2011) 83 (2012) 175 87 119 130 164 215 221 288
2024-05-26 04:15 1.80 166 337 (2011) 83 (2012) 175 87 119 130 164 215 221 288
2024-05-26 03:15 1.77 161 337 (2011) 83 (2012) 175 87 119 130 164 215 221 288
2024-05-26 02:15 1.77 161 337 (2011) 83 (2012) 175 87 119 130 164 215 221 288
2024-05-26 01:15 1.77 161 337 (2011) 83 (2012) 175 87 119 130 164 215 221 288
2024-05-26 00:15 1.77 161 337 (2011) 83 (2012) 175 87 119 130 164 215 221 288
2024-05-25 23:15 1.77 161 337 (2011) 83 (2012) 175 87 119 130 164 215 221 288
2024-05-25 22:15 1.78 163 286 (2020) 84 (2012) 175 88 119 131 165 220 231 277
2024-05-25 21:15 1.77 161 286 (2020) 84 (2012) 175 88 119 131 165 220 231 277
2024-05-25 20:15 1.78 163 286 (2020) 84 (2012) 175 88 119 131 165 220 231 277
2024-05-25 19:15 1.78 163 286 (2020) 84 (2012) 175 88 119 131 165 220 231 277
2024-05-25 18:15 1.79 165 286 (2020) 84 (2012) 175 88 119 131 165 220 231 277
2024-05-25 17:15 1.79 165 286 (2020) 84 (2012) 175 88 119 131 165 220 231 277
2024-05-25 16:15 1.79 165 286 (2020) 84 (2012) 175 88 119 131 165 220 231 277
2024-05-25 15:15 1.79 165 286 (2020) 84 (2012) 175 88 119 131 165 220 231 277
2024-05-25 14:15 1.79 165 286 (2020) 84 (2012) 175 88 119 131 165 220 231 277
2024-05-25 13:15 1.79 165 286 (2020) 84 (2012) 175 88 119 131 165 220 231 277
2024-05-25 12:15 1.78 163 286 (2020) 84 (2012) 175 88 119 131 165 220 231 277
2024-05-25 11:15 1.78 163 286 (2020) 84 (2012) 175 88 119 131 165 220 231 277
2024-05-25 10:15 1.78 163 286 (2020) 84 (2012) 175 88 119 131 165 220 231 277
2024-05-25 09:15 1.79 165 286 (2020) 84 (2012) 175 88 119 131 165 220 231 277
2024-05-25 08:15 1.79 165 286 (2020) 84 (2012) 175 88 119 131 165 220 231 277
2024-05-25 07:15 1.79 165 286 (2020) 84 (2012) 175 88 119 131 165 220 231 277
2024-05-25 06:15 1.80 166 286 (2020) 84 (2012) 175 88 119 131 165 220 231 277
2024-05-25 05:15 1.80 166 286 (2020) 84 (2012) 175 88 119 131 165 220 231 277
2024-05-25 04:15 1.79 165 286 (2020) 84 (2012) 175 88 119 131 165 220 231 277
2024-05-25 03:15 1.80 166 286 (2020) 84 (2012) 175 88 119 131 165 220 231 277
2024-05-25 02:15 1.80 166 286 (2020) 84 (2012) 175 88 119 131 165 220 231 277
2024-05-25 01:15 1.81 168 286 (2020) 84 (2012) 175 88 119 131 165 220 231 277
2024-05-25 00:15 1.81 168 286 (2020) 84 (2012) 175 88 119 131 165 220 231 277
2024-05-24 23:15 1.86 179 286 (2020) 84 (2012) 175 88 119 131 165 220 231 277
2024-05-24 22:15 1.79 165 290 (2020) 84 (2012) 173 87 120 131 164 216 232 261
2024-05-24 21:15 1.78 163 290 (2020) 84 (2012) 173 87 120 131 164 216 232 261
2024-05-24 20:15 1.78 163 290 (2020) 84 (2012) 173 87 120 131 164 216 232 261
2024-05-24 19:15 1.78 163 290 (2020) 84 (2012) 173 87 120 131 164 216 232 261
2024-05-24 18:15 1.78 163 290 (2020) 84 (2012) 173 87 120 131 164 216 232 261
2024-05-24 17:15 1.79 165 290 (2020) 84 (2012) 173 87 120 131 164 216 232 261
2024-05-24 16:15 1.79 165 290 (2020) 84 (2012) 173 87 120 131 164 216 232 261
2024-05-24 15:15 1.78 163 290 (2020) 84 (2012) 173 87 120 131 164 216 232 261
2024-05-24 14:15 1.77 161 290 (2020) 84 (2012) 173 87 120 131 164 216 232 261
2024-05-24 13:15 1.78 163 290 (2020) 84 (2012) 173 87 120 131 164 216 232 261
2024-05-24 12:15 1.78 163 290 (2020) 84 (2012) 173 87 120 131 164 216 232 261
2024-05-24 11:15 1.78 163 290 (2020) 84 (2012) 173 87 120 131 164 216 232 261
2024-05-24 10:15 1.78 163 290 (2020) 84 (2012) 173 87 120 131 164 216 232 261
2024-05-24 09:15 1.78 163 290 (2020) 84 (2012) 173 87 120 131 164 216 232 261
2024-05-24 08:15 1.78 163 290 (2020) 84 (2012) 173 87 120 131 164 216 232 261
2024-05-24 07:15 1.78 163 290 (2020) 84 (2012) 173 87 120 131 164 216 232 261
2024-05-24 06:15 1.78 163 290 (2020) 84 (2012) 173 87 120 131 164 216 232 261
2024-05-24 05:15 1.78 163 290 (2020) 84 (2012) 173 87 120 131 164 216 232 261
2024-05-24 04:15 1.78 163 290 (2020) 84 (2012) 173 87 120 131 164 216 232 261
2024-05-24 03:15 1.78 163 290 (2020) 84 (2012) 173 87 120 131 164 216 232 261
2024-05-24 02:15 1.79 165 290 (2020) 84 (2012) 173 87 120 131 164 216 232 261
2024-05-24 01:15 1.78 163 290 (2020) 84 (2012) 173 87 120 131 164 216 232 261
2024-05-24 00:15 1.79 165 290 (2020) 84 (2012) 173 87 120 131 164 216 232 261
2024-05-23 23:15 1.78 163 290 (2020) 84 (2012) 173 87 120 131 164 216 232 261
2024-05-23 22:15 1.79 165 303 (2020) 84 (2012) 180 89 121 132 168 225 250 289
2024-05-23 21:15 1.78 163 303 (2020) 84 (2012) 180 89 121 132 168 225 250 289
2024-05-23 20:15 1.79 165 303 (2020) 84 (2012) 180 89 121 132 168 225 250 289
2024-05-23 19:15 1.79 165 303 (2020) 84 (2012) 180 89 121 132 168 225 250 289
2024-05-23 18:15 1.79 165 303 (2020) 84 (2012) 180 89 121 132 168 225 250 289
2024-05-23 17:15 1.79 165 303 (2020) 84 (2012) 180 89 121 132 168 225 250 289
2024-05-23 16:15 1.79 165 303 (2020) 84 (2012) 180 89 121 132 168 225 250 289
2024-05-23 15:15 1.79 165 303 (2020) 84 (2012) 180 89 121 132 168 225 250 289
2024-05-23 14:15 1.79 165 303 (2020) 84 (2012) 180 89 121 132 168 225 250 289
2024-05-23 13:15 1.79 165 303 (2020) 84 (2012) 180 89 121 132 168 225 250 289
2024-05-23 12:15 1.78 163 303 (2020) 84 (2012) 180 89 121 132 168 225 250 289
2024-05-23 11:15 1.79 165 303 (2020) 84 (2012) 180 89 121 132 168 225 250 289
2024-05-23 10:15 1.79 165 303 (2020) 84 (2012) 180 89 121 132 168 225 250 289
2024-05-23 09:15 1.79 165 303 (2020) 84 (2012) 180 89 121 132 168 225 250 289
2024-05-23 08:15 1.79 165 303 (2020) 84 (2012) 180 89 121 132 168 225 250 289
2024-05-23 07:15 1.79 165 303 (2020) 84 (2012) 180 89 121 132 168 225 250 289
2024-05-23 06:15 1.79 165 303 (2020) 84 (2012) 180 89 121 132 168 225 250 289
2024-05-23 05:15 1.79 165 303 (2020) 84 (2012) 180 89 121 132 168 225 250 289
2024-05-23 04:15 1.79 165 303 (2020) 84 (2012) 180 89 121 132 168 225 250 289
2024-05-23 03:15 1.79 165 303 (2020) 84 (2012) 180 89 121 132 168 225 250 289
2024-05-23 02:15 1.79 165 303 (2020) 84 (2012) 180 89 121 132 168 225 250 289
2024-05-23 01:15 1.79 165 303 (2020) 84 (2012) 180 89 121 132 168 225 250 289
2024-05-23 00:15 1.80 166 303 (2020) 84 (2012) 180 89 121 132 168 225 250 289
2024-05-22 23:15 1.79 165 303 (2020) 84 (2012) 180 89 121 132 168 225 250 289
2024-05-22 22:15 1.79 165 410 (2019) 84 (2012) 197 90 123 134 174 248 282 360
2024-05-22 21:15 1.79 165 410 (2019) 84 (2012) 197 90 123 134 174 248 282 360
2024-05-22 20:15 1.80 166 410 (2019) 84 (2012) 197 90 123 134 174 248 282 360
2024-05-22 19:15 1.80 166 410 (2019) 84 (2012) 197 90 123 134 174 248 282 360
2024-05-22 18:15 1.80 166 410 (2019) 84 (2012) 197 90 123 134 174 248 282 360
2024-05-22 17:15 1.80 166 410 (2019) 84 (2012) 197 90 123 134 174 248 282 360
2024-05-22 16:15 1.80 166 410 (2019) 84 (2012) 197 90 123 134 174 248 282 360
2024-05-22 15:15 1.80 166 410 (2019) 84 (2012) 197 90 123 134 174 248 282 360
2024-05-22 14:15 1.81 168 410 (2019) 84 (2012) 197 90 123 134 174 248 282 360
2024-05-22 13:15 1.80 166 410 (2019) 84 (2012) 197 90 123 134 174 248 282 360
2024-05-22 12:15 1.81 168 410 (2019) 84 (2012) 197 90 123 134 174 248 282 360
2024-05-22 11:15 1.80 166 410 (2019) 84 (2012) 197 90 123 134 174 248 282 360
2024-05-22 10:15 1.81 168 410 (2019) 84 (2012) 197 90 123 134 174 248 282 360
2024-05-22 09:15 1.81 168 410 (2019) 84 (2012) 197 90 123 134 174 248 282 360
2024-05-22 08:15 1.80 166 410 (2019) 84 (2012) 197 90 123 134 174 248 282 360
2024-05-22 07:15 1.80 166 410 (2019) 84 (2012) 197 90 123 134 174 248 282 360
2024-05-22 06:15 1.81 168 410 (2019) 84 (2012) 197 90 123 134 174 248 282 360
2024-05-22 05:15 1.81 168 410 (2019) 84 (2012) 197 90 123 134 174 248 282 360
2024-05-22 04:15 1.81 168 410 (2019) 84 (2012) 197 90 123 134 174 248 282 360
2024-05-22 03:15 1.81 168 410 (2019) 84 (2012) 197 90 123 134 174 248 282 360
2024-05-22 02:15 1.81 168 410 (2019) 84 (2012) 197 90 123 134 174 248 282 360
2024-05-22 01:15 1.82 170 410 (2019) 84 (2012) 197 90 123 134 174 248 282 360
2024-05-22 00:15 1.81 168 410 (2019) 84 (2012) 197 90 123 134 174 248 282 360
2024-05-21 23:15 1.81 168 410 (2019) 84 (2012) 197 90 123 134 174 248 282 360
2024-05-21 22:15 1.81 168 670 (2010) 85 (2012) 233 90 125 136 173 297 373 482
2024-05-21 21:15 1.80 166 670 (2010) 85 (2012) 233 90 125 136 173 297 373 482
2024-05-21 20:15 1.81 168 670 (2010) 85 (2012) 233 90 125 136 173 297 373 482
2024-05-21 19:15 1.80 166 670 (2010) 85 (2012) 233 90 125 136 173 297 373 482
2024-05-21 18:15 1.81 168 670 (2010) 85 (2012) 233 90 125 136 173 297 373 482
2024-05-21 17:15 1.81 168 670 (2010) 85 (2012) 233 90 125 136 173 297 373 482
2024-05-21 16:15 1.82 170 670 (2010) 85 (2012) 233 90 125 136 173 297 373 482
2024-05-21 15:15 1.82 170 670 (2010) 85 (2012) 233 90 125 136 173 297 373 482
2024-05-21 14:15 1.81 168 670 (2010) 85 (2012) 233 90 125 136 173 297 373 482
2024-05-21 13:15 1.81 168 670 (2010) 85 (2012) 233 90 125 136 173 297 373 482
2024-05-21 12:15 1.81 168 670 (2010) 85 (2012) 233 90 125 136 173 297 373 482
2024-05-21 11:15 1.81 168 670 (2010) 85 (2012) 233 90 125 136 173 297 373 482
2024-05-21 10:15 1.81 168 670 (2010) 85 (2012) 233 90 125 136 173 297 373 482
2024-05-21 09:15 1.82 170 670 (2010) 85 (2012) 233 90 125 136 173 297 373 482
2024-05-21 08:15 1.82 170 670 (2010) 85 (2012) 233 90 125 136 173 297 373 482
2024-05-21 07:15 1.81 168 670 (2010) 85 (2012) 233 90 125 136 173 297 373 482
2024-05-21 06:15 1.82 170 670 (2010) 85 (2012) 233 90 125 136 173 297 373 482
2024-05-21 05:15 1.82 170 670 (2010) 85 (2012) 233 90 125 136 173 297 373 482
2024-05-21 04:15 1.82 170 670 (2010) 85 (2012) 233 90 125 136 173 297 373 482
2024-05-21 03:15 1.82 170 670 (2010) 85 (2012) 233 90 125 136 173 297 373 482
2024-05-21 02:15 1.82 170 670 (2010) 85 (2012) 233 90 125 136 173 297 373 482
2024-05-21 01:15 1.82 170 670 (2010) 85 (2012) 233 90 125 136 173 297 373 482
2024-05-21 00:15 1.82 170 670 (2010) 85 (2012) 233 90 125 136 173 297 373 482
2024-05-20 23:15 1.82 170 670 (2010) 85 (2012) 233 90 125 136 173 297 373 482
2024-05-20 22:15 1.82 170 616 (2010) 86 (2012) 208 92 127 139 179 224 267 412
2024-05-20 21:15 1.82 170 616 (2010) 86 (2012) 208 92 127 139 179 224 267 412
2024-05-20 20:15 1.82 170 616 (2010) 86 (2012) 208 92 127 139 179 224 267 412
2024-05-20 19:15 1.82 170 616 (2010) 86 (2012) 208 92 127 139 179 224 267 412
2024-05-20 18:15 1.83 172 616 (2010) 86 (2012) 208 92 127 139 179 224 267 412
2024-05-20 17:15 1.82 170 616 (2010) 86 (2012) 208 92 127 139 179 224 267 412
2024-05-20 16:15 1.83 172 616 (2010) 86 (2012) 208 92 127 139 179 224 267 412
2024-05-20 15:15 1.83 172 616 (2010) 86 (2012) 208 92 127 139 179 224 267 412
2024-05-20 14:15 1.84 174 616 (2010) 86 (2012) 208 92 127 139 179 224 267 412
2024-05-20 13:15 1.83 172 616 (2010) 86 (2012) 208 92 127 139 179 224 267 412
2024-05-20 12:15 1.83 172 616 (2010) 86 (2012) 208 92 127 139 179 224 267 412
2024-05-20 11:15 1.83 172 616 (2010) 86 (2012) 208 92 127 139 179 224 267 412
2024-05-20 10:15 1.83 172 616 (2010) 86 (2012) 208 92 127 139 179 224 267 412
2024-05-20 09:15 1.83 172 616 (2010) 86 (2012) 208 92 127 139 179 224 267 412
2024-05-20 08:15 1.83 172 616 (2010) 86 (2012) 208 92 127 139 179 224 267 412
2024-05-20 07:15 1.83 172 616 (2010) 86 (2012) 208 92 127 139 179 224 267 412
2024-05-20 06:15 1.83 172 616 (2010) 86 (2012) 208 92 127 139 179 224 267 412
2024-05-20 05:15 1.83 172 616 (2010) 86 (2012) 208 92 127 139 179 224 267 412
2024-05-20 04:15 1.83 172 616 (2010) 86 (2012) 208 92 127 139 179 224 267 412
2024-05-20 03:15 1.83 172 616 (2010) 86 (2012) 208 92 127 139 179 224 267 412
2024-05-20 02:15 1.83 172 616 (2010) 86 (2012) 208 92 127 139 179 224 267 412
2024-05-20 01:15 1.83 172 616 (2010) 86 (2012) 208 92 127 139 179 224 267 412
2024-05-20 00:15 1.84 174 616 (2010) 86 (2012) 208 92 127 139 179 224 267 412
2024-05-19 23:15 1.84 174 616 (2010) 86 (2012) 208 92 127 139 179 224 267 412

A total of 177 rows are displayed for years 2007 through 2023.